sensor_id;sensor_type;location;lat;lon;timestamp;P1;durP1;ratioP1;P2;durP2;ratioP2
55328;SDS011;41205;44.264;19.884;2023-02-28T00:02:19;86.05;;;52.00;;
55328;SDS011;41205;44.264;19.884;2023-02-28T00:04:45;96.63;;;53.35;;
55328;SDS011;41205;44.264;19.884;2023-02-28T00:07:17;98.75;;;57.70;;
55328;SDS011;41205;44.264;19.884;2023-02-28T00:09:44;89.80;;;52.65;;
55328;SDS011;41205;44.264;19.884;2023-02-28T00:12:09;118.57;;;72.40;;
55328;SDS011;41205;44.264;19.884;2023-02-28T00:14:38;118.00;;;63.03;;
55328;SDS011;41205;44.264;19.884;2023-02-28T00:17:04;84.88;;;50.03;;
55328;SDS011;41205;44.264;19.884;2023-02-28T00:19:29;87.97;;;51.20;;
55328;SDS011;41205;44.264;19.884;2023-02-28T00:21:55;85.82;;;52.22;;
55328;SDS011;41205;44.264;19.884;2023-02-28T00:24:21;88.95;;;53.15;;
55328;SDS011;41205;44.264;19.884;2023-02-28T00:26:46;97.40;;;58.45;;
55328;SDS011;41205;44.264;19.884;2023-02-28T00:29:12;95.45;;;57.38;;
55328;SDS011;41205;44.264;19.884;2023-02-28T00:31:38;80.60;;;47.72;;
55328;SDS011;41205;44.264;19.884;2023-02-28T00:34:03;76.85;;;47.45;;
55328;SDS011;41205;44.264;19.884;2023-02-28T00:36:29;88.32;;;53.20;;
55328;SDS011;41205;44.264;19.884;2023-02-28T00:38:55;92.50;;;54.92;;
55328;SDS011;41205;44.264;19.884;2023-02-28T00:41:20;100.82;;;60.35;;
55328;SDS011;41205;44.264;19.884;2023-02-28T00:43:46;104.40;;;65.85;;
55328;SDS011;41205;44.264;19.884;2023-02-28T00:46:12;109.45;;;64.25;;
55328;SDS011;41205;44.264;19.884;2023-02-28T00:48:37;106.65;;;62.08;;
55328;SDS011;41205;44.264;19.884;2023-02-28T00:51:03;95.85;;;52.75;;
55328;SDS011;41205;44.264;19.884;2023-02-28T00:53:29;102.72;;;54.88;;
55328;SDS011;41205;44.264;19.884;2023-02-28T00:55:57;79.70;;;46.17;;
55328;SDS011;41205;44.264;19.884;2023-02-28T00:58:23;87.15;;;49.70;;
55328;SDS011;41205;44.264;19.884;2023-02-28T01:00:50;110.72;;;60.10;;
55328;SDS011;41205;44.264;19.884;2023-02-28T01:03:18;106.70;;;62.65;;
55328;SDS011;41205;44.264;19.884;2023-02-28T01:05:45;106.65;;;62.15;;
55328;SDS011;41205;44.264;19.884;2023-02-28T01:08:11;124.55;;;72.07;;
55328;SDS011;41205;44.264;19.884;2023-02-28T01:10:38;129.20;;;72.35;;
55328;SDS011;41205;44.264;19.884;2023-02-28T01:13:04;113.30;;;64.95;;
55328;SDS011;41205;44.264;19.884;2023-02-28T01:15:30;113.82;;;66.05;;
55328;SDS011;41205;44.264;19.884;2023-02-28T01:17:57;126.13;;;70.22;;
55328;SDS011;41205;44.264;19.884;2023-02-28T01:20:23;95.97;;;53.90;;
55328;SDS011;41205;44.264;19.884;2023-02-28T01:22:49;88.15;;;48.08;;
55328;SDS011;41205;44.264;19.884;2023-02-28T01:25:15;115.75;;;62.28;;
55328;SDS011;41205;44.264;19.884;2023-02-28T01:27:40;139.48;;;81.93;;
55328;SDS011;41205;44.264;19.884;2023-02-28T01:30:07;130.98;;;76.60;;
55328;SDS011;41205;44.264;19.884;2023-02-28T01:32:34;140.15;;;78.72;;
55328;SDS011;41205;44.264;19.884;2023-02-28T01:35:00;136.15;;;74.10;;
55328;SDS011;41205;44.264;19.884;2023-02-28T01:37:25;112.43;;;64.50;;
55328;SDS011;41205;44.264;19.884;2023-02-28T01:39:52;128.15;;;71.60;;
55328;SDS011;41205;44.264;19.884;2023-02-28T01:42:17;124.28;;;69.82;;
55328;SDS011;41205;44.264;19.884;2023-02-28T01:45:03;144.88;;;77.57;;
55328;SDS011;41205;44.264;19.884;2023-02-28T01:47:46;145.05;;;86.28;;
55328;SDS011;41205;44.264;19.884;2023-02-28T01:50:16;137.85;;;83.43;;
55328;SDS011;41205;44.264;19.884;2023-02-28T01:52:45;119.20;;;69.15;;
55328;SDS011;41205;44.264;19.884;2023-02-28T01:55:13;93.43;;;54.22;;
55328;SDS011;41205;44.264;19.884;2023-02-28T01:57:43;75.57;;;47.03;;
55328;SDS011;41205;44.264;19.884;2023-02-28T02:00:15;75.57;;;44.95;;
55328;SDS011;41205;44.264;19.884;2023-02-28T02:02:45;72.78;;;46.40;;
55328;SDS011;41205;44.264;19.884;2023-02-28T02:05:15;72.97;;;43.40;;
55328;SDS011;41205;44.264;19.884;2023-02-28T02:07:46;73.60;;;42.80;;
55328;SDS011;41205;44.264;19.884;2023-02-28T02:10:18;70.00;;;42.20;;
55328;SDS011;41205;44.264;19.884;2023-02-28T02:15:23;58.20;;;36.78;;
55328;SDS011;41205;44.264;19.884;2023-02-28T02:18:06;55.22;;;33.25;;
55328;SDS011;41205;44.264;19.884;2023-02-28T02:29:16;56.17;;;33.83;;
55328;SDS011;41205;44.264;19.884;2023-02-28T02:45:16;65.38;;;34.67;;
55328;SDS011;41205;44.264;19.884;2023-02-28T02:48:03;53.17;;;32.30;;
55328;SDS011;41205;44.264;19.884;2023-02-28T02:50:38;57.97;;;37.83;;
55328;SDS011;41205;44.264;19.884;2023-02-28T02:53:08;69.63;;;37.30;;
55328;SDS011;41205;44.264;19.884;2023-02-28T02:55:37;66.88;;;38.92;;
55328;SDS011;41205;44.264;19.884;2023-02-28T02:58:07;63.55;;;37.13;;
55328;SDS011;41205;44.264;19.884;2023-02-28T03:00:44;61.88;;;39.00;;
55328;SDS011;41205;44.264;19.884;2023-02-28T03:03:14;56.17;;;33.40;;
55328;SDS011;41205;44.264;19.884;2023-02-28T03:05:46;55.58;;;34.30;;
55328;SDS011;41205;44.264;19.884;2023-02-28T03:08:15;42.78;;;27.13;;
55328;SDS011;41205;44.264;19.884;2023-02-28T03:10:42;50.38;;;31.63;;
55328;SDS011;41205;44.264;19.884;2023-02-28T03:16:05;58.42;;;33.75;;
55328;SDS011;41205;44.264;19.884;2023-02-28T03:21:27;54.10;;;31.13;;
55328;SDS011;41205;44.264;19.884;2023-02-28T03:24:08;55.67;;;33.72;;
55328;SDS011;41205;44.264;19.884;2023-02-28T03:26:43;59.45;;;35.55;;
55328;SDS011;41205;44.264;19.884;2023-02-28T03:29:28;60.63;;;35.88;;
55328;SDS011;41205;44.264;19.884;2023-02-28T03:32:11;63.88;;;37.53;;
55328;SDS011;41205;44.264;19.884;2023-02-28T03:35:03;59.30;;;35.70;;
55328;SDS011;41205;44.264;19.884;2023-02-28T03:37:38;53.88;;;32.55;;
55328;SDS011;41205;44.264;19.884;2023-02-28T03:40:11;62.20;;;38.70;;
55328;SDS011;41205;44.264;19.884;2023-02-28T03:42:45;70.20;;;43.22;;
55328;SDS011;41205;44.264;19.884;2023-02-28T03:45:19;93.22;;;55.55;;
55328;SDS011;41205;44.264;19.884;2023-02-28T03:47:53;88.90;;;48.75;;
55328;SDS011;41205;44.264;19.884;2023-02-28T03:50:29;89.10;;;48.15;;
55328;SDS011;41205;44.264;19.884;2023-02-28T03:53:06;89.45;;;49.75;;
55328;SDS011;41205;44.264;19.884;2023-02-28T03:55:39;64.55;;;42.42;;
55328;SDS011;41205;44.264;19.884;2023-02-28T03:58:14;69.88;;;45.45;;
55328;SDS011;41205;44.264;19.884;2023-02-28T04:00:48;64.78;;;39.45;;
55328;SDS011;41205;44.264;19.884;2023-02-28T04:03:18;40.90;;;27.52;;
55328;SDS011;41205;44.264;19.884;2023-02-28T04:05:54;48.55;;;32.15;;
55328;SDS011;41205;44.264;19.884;2023-02-28T04:08:22;44.88;;;28.08;;
55328;SDS011;41205;44.264;19.884;2023-02-28T04:10:50;43.72;;;27.98;;
55328;SDS011;41205;44.264;19.884;2023-02-28T04:13:25;44.00;;;29.13;;
55328;SDS011;41205;44.264;19.884;2023-02-28T04:15:51;33.85;;;23.65;;
55328;SDS011;41205;44.264;19.884;2023-02-28T04:18:16;37.08;;;23.42;;
55328;SDS011;41205;44.264;19.884;2023-02-28T04:20:42;44.25;;;25.80;;
55328;SDS011;41205;44.264;19.884;2023-02-28T04:23:08;39.47;;;23.70;;
55328;SDS011;41205;44.264;19.884;2023-02-28T04:25:34;39.40;;;24.80;;
55328;SDS011;41205;44.264;19.884;2023-02-28T04:27:59;45.05;;;28.63;;
55328;SDS011;41205;44.264;19.884;2023-02-28T04:30:25;38.08;;;24.58;;
55328;SDS011;41205;44.264;19.884;2023-02-28T04:32:51;36.40;;;25.52;;
55328;SDS011;41205;44.264;19.884;2023-02-28T04:35:16;48.72;;;27.58;;
55328;SDS011;41205;44.264;19.884;2023-02-28T04:37:42;37.50;;;23.73;;
55328;SDS011;41205;44.264;19.884;2023-02-28T04:40:08;38.28;;;24.20;;
55328;SDS011;41205;44.264;19.884;2023-02-28T04:42:34;40.17;;;25.33;;
55328;SDS011;41205;44.264;19.884;2023-02-28T04:45:01;36.28;;;22.40;;
55328;SDS011;41205;44.264;19.884;2023-02-28T04:47:28;47.60;;;26.23;;
55328;SDS011;41205;44.264;19.884;2023-02-28T04:49:54;42.97;;;25.90;;
55328;SDS011;41205;44.264;19.884;2023-02-28T04:52:20;37.65;;;24.42;;
55328;SDS011;41205;44.264;19.884;2023-02-28T04:54:45;35.22;;;22.92;;
55328;SDS011;41205;44.264;19.884;2023-02-28T04:57:11;44.72;;;27.13;;
55328;SDS011;41205;44.264;19.884;2023-02-28T04:59:37;41.72;;;25.17;;
55328;SDS011;41205;44.264;19.884;2023-02-28T05:02:03;40.50;;;25.63;;
55328;SDS011;41205;44.264;19.884;2023-02-28T05:04:34;46.15;;;26.52;;
55328;SDS011;41205;44.264;19.884;2023-02-28T05:07:00;41.60;;;25.45;;
55328;SDS011;41205;44.264;19.884;2023-02-28T05:09:26;43.47;;;27.45;;
55328;SDS011;41205;44.264;19.884;2023-02-28T05:11:53;43.55;;;28.38;;
55328;SDS011;41205;44.264;19.884;2023-02-28T05:14:19;43.15;;;27.02;;
55328;SDS011;41205;44.264;19.884;2023-02-28T05:16:45;46.28;;;26.38;;
55328;SDS011;41205;44.264;19.884;2023-02-28T05:19:10;44.72;;;28.30;;
55328;SDS011;41205;44.264;19.884;2023-02-28T05:21:38;48.58;;;29.30;;
55328;SDS011;41205;44.264;19.884;2023-02-28T05:24:06;39.17;;;24.33;;
55328;SDS011;41205;44.264;19.884;2023-02-28T05:26:35;40.40;;;25.30;;
55328;SDS011;41205;44.264;19.884;2023-02-28T05:29:03;38.28;;;24.77;;
55328;SDS011;41205;44.264;19.884;2023-02-28T05:31:28;49.17;;;30.13;;
55328;SDS011;41205;44.264;19.884;2023-02-28T05:33:54;45.78;;;28.83;;
55328;SDS011;41205;44.264;19.884;2023-02-28T05:36:20;51.22;;;30.80;;
55328;SDS011;41205;44.264;19.884;2023-02-28T05:38:47;52.67;;;32.88;;
55328;SDS011;41205;44.264;19.884;2023-02-28T05:41:13;59.90;;;35.20;;
55328;SDS011;41205;44.264;19.884;2023-02-28T05:43:40;53.65;;;33.08;;
55328;SDS011;41205;44.264;19.884;2023-02-28T05:46:06;60.50;;;31.67;;
55328;SDS011;41205;44.264;19.884;2023-02-28T05:48:34;53.20;;;31.33;;
55328;SDS011;41205;44.264;19.884;2023-02-28T05:51:01;49.00;;;30.42;;
55328;SDS011;41205;44.264;19.884;2023-02-28T05:53:27;54.75;;;30.65;;
55328;SDS011;41205;44.264;19.884;2023-02-28T05:55:54;52.67;;;29.42;;
55328;SDS011;41205;44.264;19.884;2023-02-28T05:58:20;50.08;;;29.50;;
55328;SDS011;41205;44.264;19.884;2023-02-28T06:00:46;61.50;;;33.30;;
55328;SDS011;41205;44.264;19.884;2023-02-28T06:03:13;53.85;;;32.50;;
55328;SDS011;41205;44.264;19.884;2023-02-28T06:05:39;59.65;;;36.28;;
55328;SDS011;41205;44.264;19.884;2023-02-28T06:08:04;59.13;;;35.05;;
55328;SDS011;41205;44.264;19.884;2023-02-28T06:10:36;58.85;;;34.47;;
55328;SDS011;41205;44.264;19.884;2023-02-28T06:13:02;54.92;;;31.55;;
55328;SDS011;41205;44.264;19.884;2023-02-28T06:15:29;54.30;;;31.95;;
55328;SDS011;41205;44.264;19.884;2023-02-28T06:17:55;59.42;;;36.17;;
55328;SDS011;41205;44.264;19.884;2023-02-28T06:20:21;65.82;;;37.25;;
55328;SDS011;41205;44.264;19.884;2023-02-28T06:22:48;62.13;;;37.05;;
55328;SDS011;41205;44.264;19.884;2023-02-28T06:25:15;69.45;;;40.28;;
55328;SDS011;41205;44.264;19.884;2023-02-28T06:27:42;62.08;;;37.85;;
55328;SDS011;41205;44.264;19.884;2023-02-28T06:30:09;66.43;;;41.00;;
55328;SDS011;41205;44.264;19.884;2023-02-28T06:32:36;88.63;;;50.00;;
55328;SDS011;41205;44.264;19.884;2023-02-28T06:35:02;90.28;;;54.90;;
55328;SDS011;41205;44.264;19.884;2023-02-28T06:37:28;85.63;;;53.47;;
55328;SDS011;41205;44.264;19.884;2023-02-28T06:39:55;79.88;;;49.92;;
55328;SDS011;41205;44.264;19.884;2023-02-28T06:42:21;79.95;;;47.70;;
55328;SDS011;41205;44.264;19.884;2023-02-28T06:44:53;72.90;;;41.58;;
55328;SDS011;41205;44.264;19.884;2023-02-28T06:47:20;90.30;;;55.22;;
55328;SDS011;41205;44.264;19.884;2023-02-28T06:49:46;73.78;;;43.80;;
55328;SDS011;41205;44.264;19.884;2023-02-28T06:52:12;92.47;;;56.08;;
55328;SDS011;41205;44.264;19.884;2023-02-28T06:54:37;88.90;;;49.03;;
55328;SDS011;41205;44.264;19.884;2023-02-28T06:57:03;66.43;;;43.42;;
55328;SDS011;41205;44.264;19.884;2023-02-28T06:59:29;69.70;;;41.63;;
55328;SDS011;41205;44.264;19.884;2023-02-28T07:01:55;68.93;;;42.92;;
55328;SDS011;41205;44.264;19.884;2023-02-28T07:04:21;66.97;;;41.08;;
55328;SDS011;41205;44.264;19.884;2023-02-28T07:06:47;77.80;;;48.13;;
55328;SDS011;41205;44.264;19.884;2023-02-28T07:09:13;70.30;;;44.28;;
55328;SDS011;41205;44.264;19.884;2023-02-28T07:11:39;61.85;;;36.80;;
55328;SDS011;41205;44.264;19.884;2023-02-28T07:14:06;58.08;;;35.55;;
55328;SDS011;41205;44.264;19.884;2023-02-28T07:16:32;60.28;;;36.47;;
55328;SDS011;41205;44.264;19.884;2023-02-28T07:18:58;62.03;;;33.10;;
55328;SDS011;41205;44.264;19.884;2023-02-28T07:21:23;60.75;;;30.60;;
55328;SDS011;41205;44.264;19.884;2023-02-28T07:23:49;53.78;;;33.92;;
55328;SDS011;41205;44.264;19.884;2023-02-28T07:26:17;62.10;;;36.70;;
55328;SDS011;41205;44.264;19.884;2023-02-28T07:28:44;55.83;;;32.72;;
55328;SDS011;41205;44.264;19.884;2023-02-28T07:31:11;51.35;;;32.08;;
55328;SDS011;41205;44.264;19.884;2023-02-28T07:33:42;50.83;;;32.08;;
55328;SDS011;41205;44.264;19.884;2023-02-28T07:36:09;57.42;;;33.67;;
55328;SDS011;41205;44.264;19.884;2023-02-28T07:38:44;57.92;;;35.78;;
55328;SDS011;41205;44.264;19.884;2023-02-28T07:41:13;55.63;;;29.73;;
55328;SDS011;41205;44.264;19.884;2023-02-28T07:43:43;51.88;;;28.52;;
55328;SDS011;41205;44.264;19.884;2023-02-28T07:46:10;51.33;;;28.45;;
55328;SDS011;41205;44.264;19.884;2023-02-28T07:48:37;42.90;;;27.75;;
55328;SDS011;41205;44.264;19.884;2023-02-28T07:51:03;61.92;;;36.80;;
55328;SDS011;41205;44.264;19.884;2023-02-28T07:53:29;46.08;;;28.70;;
55328;SDS011;41205;44.264;19.884;2023-02-28T07:55:55;41.30;;;21.90;;
55328;SDS011;41205;44.264;19.884;2023-02-28T07:58:22;39.58;;;23.15;;
55328;SDS011;41205;44.264;19.884;2023-02-28T08:00:48;37.53;;;20.40;;
55328;SDS011;41205;44.264;19.884;2023-02-28T08:03:14;39.70;;;21.65;;
55328;SDS011;41205;44.264;19.884;2023-02-28T08:05:41;33.13;;;20.02;;
55328;SDS011;41205;44.264;19.884;2023-02-28T08:08:07;41.55;;;21.98;;
55328;SDS011;41205;44.264;19.884;2023-02-28T08:10:33;40.05;;;23.05;;
55328;SDS011;41205;44.264;19.884;2023-02-28T08:12:59;38.45;;;21.88;;
55328;SDS011;41205;44.264;19.884;2023-02-28T08:15:25;38.30;;;21.58;;
55328;SDS011;41205;44.264;19.884;2023-02-28T08:17:51;37.28;;;19.30;;
55328;SDS011;41205;44.264;19.884;2023-02-28T08:20:17;35.45;;;21.08;;
55328;SDS011;41205;44.264;19.884;2023-02-28T08:22:43;40.63;;;20.58;;
55328;SDS011;41205;44.264;19.884;2023-02-28T08:25:08;35.38;;;19.08;;
55328;SDS011;41205;44.264;19.884;2023-02-28T08:27:35;34.78;;;19.77;;
55328;SDS011;41205;44.264;19.884;2023-02-28T08:30:00;34.17;;;20.02;;
55328;SDS011;41205;44.264;19.884;2023-02-28T08:32:26;34.67;;;20.38;;
55328;SDS011;41205;44.264;19.884;2023-02-28T08:34:52;31.65;;;19.80;;
55328;SDS011;41205;44.264;19.884;2023-02-28T08:37:18;33.70;;;18.48;;
55328;SDS011;41205;44.264;19.884;2023-02-28T08:39:43;37.90;;;21.52;;
55328;SDS011;41205;44.264;19.884;2023-02-28T08:42:09;30.95;;;18.73;;
55328;SDS011;41205;44.264;19.884;2023-02-28T08:44:35;38.03;;;24.05;;
55328;SDS011;41205;44.264;19.884;2023-02-28T08:47:00;32.67;;;19.02;;
55328;SDS011;41205;44.264;19.884;2023-02-28T08:49:26;29.85;;;19.58;;
55328;SDS011;41205;44.264;19.884;2023-02-28T08:51:52;32.58;;;19.35;;
55328;SDS011;41205;44.264;19.884;2023-02-28T08:54:19;32.55;;;20.10;;
55328;SDS011;41205;44.264;19.884;2023-02-28T08:56:45;36.35;;;22.98;;
55328;SDS011;41205;44.264;19.884;2023-02-28T08:59:14;41.60;;;24.77;;
55328;SDS011;41205;44.264;19.884;2023-02-28T09:01:40;36.60;;;23.10;;
55328;SDS011;41205;44.264;19.884;2023-02-28T09:04:06;39.63;;;26.35;;
55328;SDS011;41205;44.264;19.884;2023-02-28T09:06:34;46.42;;;26.02;;
55328;SDS011;41205;44.264;19.884;2023-02-28T09:09:00;48.20;;;26.17;;
55328;SDS011;41205;44.264;19.884;2023-02-28T09:11:27;41.40;;;22.15;;
55328;SDS011;41205;44.264;19.884;2023-02-28T09:13:53;45.88;;;23.80;;
55328;SDS011;41205;44.264;19.884;2023-02-28T09:16:20;44.55;;;27.15;;
55328;SDS011;41205;44.264;19.884;2023-02-28T09:18:47;50.47;;;26.63;;
55328;SDS011;41205;44.264;19.884;2023-02-28T09:21:14;42.45;;;26.90;;
55328;SDS011;41205;44.264;19.884;2023-02-28T09:23:42;96.00;;;57.45;;
55328;SDS011;41205;44.264;19.884;2023-02-28T09:26:16;108.65;;;66.13;;
55328;SDS011;41205;44.264;19.884;2023-02-28T09:28:47;114.55;;;69.63;;
55328;SDS011;41205;44.264;19.884;2023-02-28T09:31:14;103.95;;;58.60;;
55328;SDS011;41205;44.264;19.884;2023-02-28T09:33:41;96.15;;;57.72;;
55328;SDS011;41205;44.264;19.884;2023-02-28T09:36:07;97.03;;;55.95;;
55328;SDS011;41205;44.264;19.884;2023-02-28T09:38:33;99.93;;;64.13;;
55328;SDS011;41205;44.264;19.884;2023-02-28T09:41:01;105.00;;;65.32;;
55328;SDS011;41205;44.264;19.884;2023-02-28T09:43:33;121.40;;;75.05;;
55328;SDS011;41205;44.264;19.884;2023-02-28T09:48:48;146.85;;;89.50;;
55328;SDS011;41205;44.264;19.884;2023-02-28T09:54:23;126.30;;;73.95;;
55328;SDS011;41205;44.264;19.884;2023-02-28T10:05:09;97.45;;;62.00;;
55328;SDS011;41205;44.264;19.884;2023-02-28T10:10:17;121.82;;;77.75;;
55328;SDS011;41205;44.264;19.884;2023-02-28T10:12:48;119.18;;;74.47;;
55328;SDS011;41205;44.264;19.884;2023-02-28T10:15:18;122.20;;;73.30;;
55328;SDS011;41205;44.264;19.884;2023-02-28T10:17:48;114.28;;;67.25;;
55328;SDS011;41205;44.264;19.884;2023-02-28T10:20:21;95.47;;;56.90;;
55328;SDS011;41205;44.264;19.884;2023-02-28T10:25:45;114.43;;;70.60;;
55328;SDS011;41205;44.264;19.884;2023-02-28T10:31:20;108.57;;;60.08;;
55328;SDS011;41205;44.264;19.884;2023-02-28T10:33:47;113.68;;;65.60;;
55328;SDS011;41205;44.264;19.884;2023-02-28T10:36:17;121.55;;;69.45;;
55328;SDS011;41205;44.264;19.884;2023-02-28T10:38:45;100.00;;;60.97;;
55328;SDS011;41205;44.264;19.884;2023-02-28T10:41:17;91.25;;;56.78;;
55328;SDS011;41205;44.264;19.884;2023-02-28T10:47:16;86.88;;;47.95;;
55328;SDS011;41205;44.264;19.884;2023-02-28T10:49:49;89.55;;;53.90;;
55328;SDS011;41205;44.264;19.884;2023-02-28T10:52:36;90.13;;;58.88;;
55328;SDS011;41205;44.264;19.884;2023-02-28T10:55:13;89.15;;;56.15;;
55328;SDS011;41205;44.264;19.884;2023-02-28T10:57:44;88.50;;;52.70;;
55328;SDS011;41205;44.264;19.884;2023-02-28T11:00:18;63.80;;;42.08;;
55328;SDS011;41205;44.264;19.884;2023-02-28T11:02:47;80.38;;;48.38;;
55328;SDS011;41205;44.264;19.884;2023-02-28T11:05:26;91.75;;;54.97;;
55328;SDS011;41205;44.264;19.884;2023-02-28T11:10:37;96.10;;;57.63;;
55328;SDS011;41205;44.264;19.884;2023-02-28T11:13:03;92.13;;;57.28;;
55328;SDS011;41205;44.264;19.884;2023-02-28T11:18:53;87.00;;;55.42;;
55328;SDS011;41205;44.264;19.884;2023-02-28T11:21:22;137.45;;;89.85;;
55328;SDS011;41205;44.264;19.884;2023-02-28T11:26:41;130.63;;;79.05;;
55328;SDS011;41205;44.264;19.884;2023-02-28T11:29:12;93.45;;;58.83;;
55328;SDS011;41205;44.264;19.884;2023-02-28T11:34:44;86.18;;;53.33;;
55328;SDS011;41205;44.264;19.884;2023-02-28T11:37:15;102.53;;;65.30;;
55328;SDS011;41205;44.264;19.884;2023-02-28T11:39:43;107.68;;;65.80;;
55328;SDS011;41205;44.264;19.884;2023-02-28T11:44:53;90.63;;;57.40;;
55328;SDS011;41205;44.264;19.884;2023-02-28T11:52:48;74.18;;;45.30;;
55328;SDS011;41205;44.264;19.884;2023-02-28T12:17:49;83.93;;;52.85;;
55328;SDS011;41205;44.264;19.884;2023-02-28T12:20:21;140.40;;;94.97;;
55328;SDS011;41205;44.264;19.884;2023-02-28T12:22:59;116.38;;;82.88;;
55328;SDS011;41205;44.264;19.884;2023-02-28T12:28:01;87.93;;;58.13;;
55328;SDS011;41205;44.264;19.884;2023-02-28T12:30:29;96.43;;;65.68;;
55328;SDS011;41205;44.264;19.884;2023-02-28T12:33:09;78.35;;;51.50;;
55328;SDS011;41205;44.264;19.884;2023-02-28T12:38:25;164.63;;;112.07;;
55328;SDS011;41205;44.264;19.884;2023-02-28T12:43:40;86.15;;;59.15;;
55328;SDS011;41205;44.264;19.884;2023-02-28T12:49:42;118.35;;;77.30;;
55328;SDS011;41205;44.264;19.884;2023-02-28T12:52:15;123.68;;;79.57;;
55328;SDS011;41205;44.264;19.884;2023-02-28T12:54:59;88.80;;;58.95;;
55328;SDS011;41205;44.264;19.884;2023-02-28T13:00:23;89.65;;;55.25;;
55328;SDS011;41205;44.264;19.884;2023-02-28T13:03:01;67.43;;;42.53;;
55328;SDS011;41205;44.264;19.884;2023-02-28T13:05:58;98.70;;;60.75;;
55328;SDS011;41205;44.264;19.884;2023-02-28T13:11:25;76.47;;;49.50;;
55328;SDS011;41205;44.264;19.884;2023-02-28T13:14:03;76.03;;;45.05;;
55328;SDS011;41205;44.264;19.884;2023-02-28T13:19:37;89.38;;;55.33;;
55328;SDS011;41205;44.264;19.884;2023-02-28T13:22:09;69.82;;;39.80;;
55328;SDS011;41205;44.264;19.884;2023-02-28T13:24:45;68.00;;;39.45;;
55328;SDS011;41205;44.264;19.884;2023-02-28T13:27:19;88.97;;;54.55;;
55328;SDS011;41205;44.264;19.884;2023-02-28T13:29:49;89.22;;;55.00;;
55328;SDS011;41205;44.264;19.884;2023-02-28T13:39:56;104.18;;;63.60;;
55328;SDS011;41205;44.264;19.884;2023-02-28T13:55:46;67.30;;;40.53;;
55328;SDS011;41205;44.264;19.884;2023-02-28T14:06:33;88.80;;;54.40;;
55328;SDS011;41205;44.264;19.884;2023-02-28T14:09:03;62.80;;;38.50;;
55328;SDS011;41205;44.264;19.884;2023-02-28T14:11:42;55.15;;;32.58;;
55328;SDS011;41205;44.264;19.884;2023-02-28T14:14:10;70.28;;;46.90;;
55328;SDS011;41205;44.264;19.884;2023-02-28T14:17:01;76.80;;;49.47;;
55328;SDS011;41205;44.264;19.884;2023-02-28T14:19:30;81.47;;;53.75;;
55328;SDS011;41205;44.264;19.884;2023-02-28T14:30:58;68.95;;;41.85;;
55328;SDS011;41205;44.264;19.884;2023-02-28T14:34:12;76.70;;;46.70;;
55328;SDS011;41205;44.264;19.884;2023-02-28T14:36:43;103.80;;;60.38;;
55328;SDS011;41205;44.264;19.884;2023-02-28T14:41:40;108.93;;;63.60;;
55328;SDS011;41205;44.264;19.884;2023-02-28T14:44:26;98.97;;;61.60;;
55328;SDS011;41205;44.264;19.884;2023-02-28T14:46:53;102.22;;;68.00;;
55328;SDS011;41205;44.264;19.884;2023-02-28T14:49:27;102.60;;;69.10;;
55328;SDS011;41205;44.264;19.884;2023-02-28T14:52:05;117.88;;;68.72;;
55328;SDS011;41205;44.264;19.884;2023-02-28T14:54:35;118.07;;;69.38;;
55328;SDS011;41205;44.264;19.884;2023-02-28T14:57:02;122.15;;;74.43;;
55328;SDS011;41205;44.264;19.884;2023-02-28T14:59:32;128.65;;;81.75;;
55328;SDS011;41205;44.264;19.884;2023-02-28T15:05:00;112.18;;;61.28;;
55328;SDS011;41205;44.264;19.884;2023-02-28T15:07:42;155.43;;;87.90;;
55328;SDS011;41205;44.264;19.884;2023-02-28T15:12:48;158.55;;;99.30;;
55328;SDS011;41205;44.264;19.884;2023-02-28T15:15:19;124.68;;;77.72;;
55328;SDS011;41205;44.264;19.884;2023-02-28T15:17:46;128.98;;;78.43;;
55328;SDS011;41205;44.264;19.884;2023-02-28T15:20:18;100.45;;;63.60;;
55328;SDS011;41205;44.264;19.884;2023-02-28T15:22:44;101.40;;;58.42;;
55328;SDS011;41205;44.264;19.884;2023-02-28T15:25:13;119.93;;;76.57;;
55328;SDS011;41205;44.264;19.884;2023-02-28T15:27:49;97.70;;;59.40;;
55328;SDS011;41205;44.264;19.884;2023-02-28T15:30:19;116.85;;;68.60;;
55328;SDS011;41205;44.264;19.884;2023-02-28T15:35:29;90.93;;;57.47;;
55328;SDS011;41205;44.264;19.884;2023-02-28T15:37:57;99.75;;;62.50;;
55328;SDS011;41205;44.264;19.884;2023-02-28T15:40:37;107.32;;;60.90;;
55328;SDS011;41205;44.264;19.884;2023-02-28T15:43:16;99.50;;;56.50;;
55328;SDS011;41205;44.264;19.884;2023-02-28T15:48:32;110.93;;;59.03;;
55328;SDS011;41205;44.264;19.884;2023-02-28T15:51:09;100.25;;;59.42;;
55328;SDS011;41205;44.264;19.884;2023-02-28T15:58:56;143.55;;;72.97;;
55328;SDS011;41205;44.264;19.884;2023-02-28T16:03:56;127.72;;;73.40;;
55328;SDS011;41205;44.264;19.884;2023-02-28T16:06:26;115.43;;;67.78;;
55328;SDS011;41205;44.264;19.884;2023-02-28T16:11:23;136.75;;;81.40;;
55328;SDS011;41205;44.264;19.884;2023-02-28T16:13:49;138.48;;;81.82;;
55328;SDS011;41205;44.264;19.884;2023-02-28T16:16:20;124.43;;;72.10;;
55328;SDS011;41205;44.264;19.884;2023-02-28T16:18:49;126.10;;;74.70;;
55328;SDS011;41205;44.264;19.884;2023-02-28T16:21:14;103.35;;;60.65;;
55328;SDS011;41205;44.264;19.884;2023-02-28T16:23:40;113.22;;;65.40;;
55328;SDS011;41205;44.264;19.884;2023-02-28T16:26:06;108.13;;;61.83;;
55328;SDS011;41205;44.264;19.884;2023-02-28T16:28:36;101.07;;;59.65;;
55328;SDS011;41205;44.264;19.884;2023-02-28T16:31:04;96.55;;;58.42;;
55328;SDS011;41205;44.264;19.884;2023-02-28T16:33:31;82.97;;;48.67;;
55328;SDS011;41205;44.264;19.884;2023-02-28T16:35:58;118.28;;;67.30;;
55328;SDS011;41205;44.264;19.884;2023-02-28T16:38:24;113.95;;;64.55;;
55328;SDS011;41205;44.264;19.884;2023-02-28T16:40:50;200.10;;;111.97;;
55328;SDS011;41205;44.264;19.884;2023-02-28T16:43:18;529.70;;;312.63;;
55328;SDS011;41205;44.264;19.884;2023-02-28T16:45:47;267.98;;;150.80;;
55328;SDS011;41205;44.264;19.884;2023-02-28T16:48:16;187.23;;;109.32;;
55328;SDS011;41205;44.264;19.884;2023-02-28T16:50:42;111.80;;;68.55;;
55328;SDS011;41205;44.264;19.884;2023-02-28T16:53:09;221.57;;;126.00;;
55328;SDS011;41205;44.264;19.884;2023-02-28T16:55:35;198.45;;;113.95;;
55328;SDS011;41205;44.264;19.884;2023-02-28T16:58:02;145.18;;;87.05;;
55328;SDS011;41205;44.264;19.884;2023-02-28T17:00:29;200.27;;;132.30;;
55328;SDS011;41205;44.264;19.884;2023-02-28T17:02:56;150.00;;;95.28;;
55328;SDS011;41205;44.264;19.884;2023-02-28T17:05:24;127.47;;;75.18;;
55328;SDS011;41205;44.264;19.884;2023-02-28T17:07:51;112.43;;;63.83;;
55328;SDS011;41205;44.264;19.884;2023-02-28T17:12:47;94.20;;;56.85;;
55328;SDS011;41205;44.264;19.884;2023-02-28T17:15:14;112.95;;;68.70;;
55328;SDS011;41205;44.264;19.884;2023-02-28T17:17:42;112.50;;;64.63;;
55328;SDS011;41205;44.264;19.884;2023-02-28T17:20:20;122.57;;;74.85;;
55328;SDS011;41205;44.264;19.884;2023-02-28T17:22:51;120.70;;;69.15;;